sensor_id;sensor_type;location;lat;lon;timestamp;pressure;altitude;pressure_sealevel;temperature;humidity
74627;BME280;63132;52.268;5.192;2023-08-21T00:02:15;102168.72;;;19.53;66.10
74627;BME280;63132;52.268;5.192;2023-08-21T00:04:40;102177.88;;;19.38;66.17
74627;BME280;63132;52.268;5.192;2023-08-21T00:07:05;102185.78;;;19.43;66.10
74627;BME280;63132;52.268;5.192;2023-08-21T00:09:31;102186.78;;;19.32;67.25
74627;BME280;63132;52.268;5.192;2023-08-21T00:11:57;102181.59;;;19.51;66.82
74627;BME280;63132;52.268;5.192;2023-08-21T00:14:22;102183.97;;;19.52;66.53
74627;BME280;63132;52.268;5.192;2023-08-21T00:16:48;102186.25;;;19.61;66.55
74627;BME280;63132;52.268;5.192;2023-08-21T00:19:13;102177.94;;;19.54;66.51
74627;BME280;63132;52.268;5.192;2023-08-21T00:21:38;102187.09;;;19.58;66.69
74627;BME280;63132;52.268;5.192;2023-08-21T00:24:04;102179.44;;;19.58;66.40
74627;BME280;63132;52.268;5.192;2023-08-21T00:26:29;102173.88;;;19.55;66.87
74627;BME280;63132;52.268;5.192;2023-08-21T00:28:54;102175.97;;;19.51;66.87
74627;BME280;63132;52.268;5.192;2023-08-21T00:31:19;102176.69;;;19.55;66.42
74627;BME280;63132;52.268;5.192;2023-08-21T00:33:45;102166.41;;;19.48;66.90
74627;BME280;63132;52.268;5.192;2023-08-21T00:36:10;102176.63;;;19.58;66.57
74627;BME280;63132;52.268;5.192;2023-08-21T00:38:35;102167.97;;;19.49;66.71
74627;BME280;63132;52.268;5.192;2023-08-21T00:41:01;102168.75;;;19.50;66.85
74627;BME280;63132;52.268;5.192;2023-08-21T00:43:26;102171.31;;;19.64;66.85
74627;BME280;63132;52.268;5.192;2023-08-21T00:45:51;102165.09;;;19.53;66.80
74627;BME280;63132;52.268;5.192;2023-08-21T00:48:17;102168.44;;;19.68;66.10
74627;BME280;63132;52.268;5.192;2023-08-21T00:50:43;102173.81;;;19.78;66.36
74627;BME280;63132;52.268;5.192;2023-08-21T00:53:10;102175.59;;;19.88;65.58
74627;BME280;63132;52.268;5.192;2023-08-21T00:55:35;102170.50;;;19.83;65.74
74627;BME280;63132;52.268;5.192;2023-08-21T00:58:02;102172.88;;;19.65;66.28
74627;BME280;63132;52.268;5.192;2023-08-21T01:00:29;102170.22;;;19.78;66.23
74627;BME280;63132;52.268;5.192;2023-08-21T01:02:55;102165.88;;;19.73;66.12
74627;BME280;63132;52.268;5.192;2023-08-21T01:05:21;102164.50;;;19.81;65.39
74627;BME280;63132;52.268;5.192;2023-08-21T01:07:57;102155.88;;;19.72;65.92
74627;BME280;63132;52.268;5.192;2023-08-21T01:10:41;102171.34;;;19.80;65.74
74627;BME280;63132;52.268;5.192;2023-08-21T01:15:53;102172.13;;;19.81;65.39
74627;BME280;63132;52.268;5.192;2023-08-21T01:18:21;102167.84;;;19.76;65.76
74627;BME280;63132;52.268;5.192;2023-08-21T01:20:48;102172.94;;;19.81;65.67
74627;BME280;63132;52.268;5.192;2023-08-21T01:23:46;102172.22;;;19.77;65.79
74627;BME280;63132;52.268;5.192;2023-08-21T01:26:11;102177.69;;;19.84;65.47
74627;BME280;63132;52.268;5.192;2023-08-21T01:28:36;102181.81;;;19.80;65.60
74627;BME280;63132;52.268;5.192;2023-08-21T01:31:10;102187.22;;;19.71;65.68
74627;BME280;63132;52.268;5.192;2023-08-21T01:33:42;102183.97;;;19.52;66.42
74627;BME280;63132;52.268;5.192;2023-08-21T01:36:10;102194.28;;;19.59;65.97
74627;BME280;63132;52.268;5.192;2023-08-21T01:38:37;102191.97;;;19.54;66.88
74627;BME280;63132;52.268;5.192;2023-08-21T01:41:02;102189.25;;;19.70;66.27
74627;BME280;63132;52.268;5.192;2023-08-21T01:43:28;102187.19;;;19.51;66.11
74627;BME280;63132;52.268;5.192;2023-08-21T01:45:54;102185.84;;;19.39;65.98
74627;BME280;63132;52.268;5.192;2023-08-21T01:48:19;102180.06;;;19.26;66.83
74627;BME280;63132;52.268;5.192;2023-08-21T01:50:44;102178.66;;;19.38;66.86
74627;BME280;63132;52.268;5.192;2023-08-21T01:53:10;102182.44;;;19.28;67.30
74627;BME280;63132;52.268;5.192;2023-08-21T01:55:35;102189.28;;;19.27;66.92
74627;BME280;63132;52.268;5.192;2023-08-21T01:58:00;102186.13;;;19.25;66.87
74627;BME280;63132;52.268;5.192;2023-08-21T02:00:26;102191.09;;;19.17;67.05
74627;BME280;63132;52.268;5.192;2023-08-21T02:02:51;102187.16;;;19.15;67.58
74627;BME280;63132;52.268;5.192;2023-08-21T02:05:16;102183.69;;;19.27;67.23
74627;BME280;63132;52.268;5.192;2023-08-21T02:07:41;102182.31;;;19.15;66.86
74627;BME280;63132;52.268;5.192;2023-08-21T02:10:07;102196.34;;;19.15;67.51
74627;BME280;63132;52.268;5.192;2023-08-21T02:12:33;102191.00;;;19.21;66.98
74627;BME280;63132;52.268;5.192;2023-08-21T02:14:58;102183.91;;;19.16;66.63
74627;BME280;63132;52.268;5.192;2023-08-21T02:17:26;102180.78;;;19.11;66.65
74627;BME280;63132;52.268;5.192;2023-08-21T02:19:51;102189.78;;;19.02;67.14
74627;BME280;63132;52.268;5.192;2023-08-21T02:22:17;102188.13;;;19.04;67.30
74627;BME280;63132;52.268;5.192;2023-08-21T02:24:42;102187.75;;;19.02;67.03
74627;BME280;63132;52.268;5.192;2023-08-21T02:27:07;102190.47;;;18.86;67.70
74627;BME280;63132;52.268;5.192;2023-08-21T02:29:33;102191.75;;;18.81;67.78
74627;BME280;63132;52.268;5.192;2023-08-21T02:31:58;102190.72;;;18.72;68.07
74627;BME280;63132;52.268;5.192;2023-08-21T02:34:24;102193.34;;;18.83;68.02
74627;BME280;63132;52.268;5.192;2023-08-21T02:36:49;102187.06;;;18.75;68.22
74627;BME280;63132;52.268;5.192;2023-08-21T02:39:14;102191.19;;;18.67;68.53
74627;BME280;63132;52.268;5.192;2023-08-21T02:41:40;102185.41;;;18.77;68.25
74627;BME280;63132;52.268;5.192;2023-08-21T02:44:05;102189.63;;;18.66;68.62
74627;BME280;63132;52.268;5.192;2023-08-21T02:46:30;102185.94;;;18.69;68.33
74627;BME280;63132;52.268;5.192;2023-08-21T02:48:56;102181.22;;;18.62;68.77
74627;BME280;63132;52.268;5.192;2023-08-21T02:51:21;102182.63;;;18.50;69.28
74627;BME280;63132;52.268;5.192;2023-08-21T02:53:46;102189.28;;;18.60;68.43
74627;BME280;63132;52.268;5.192;2023-08-21T02:56:11;102185.25;;;18.61;68.36
74627;BME280;63132;52.268;5.192;2023-08-21T02:58:37;102183.22;;;18.62;68.15
74627;BME280;63132;52.268;5.192;2023-08-21T03:01:02;102182.09;;;18.59;67.89
74627;BME280;63132;52.268;5.192;2023-08-21T03:03:27;102180.19;;;18.52;68.35
74627;BME280;63132;52.268;5.192;2023-08-21T03:05:52;102188.97;;;18.54;68.30
74627;BME280;63132;52.268;5.192;2023-08-21T03:08:18;102186.53;;;18.57;68.21
74627;BME280;63132;52.268;5.192;2023-08-21T03:10:43;102193.50;;;18.48;68.46
74627;BME280;63132;52.268;5.192;2023-08-21T03:13:08;102187.03;;;18.51;68.04
74627;BME280;63132;52.268;5.192;2023-08-21T03:15:34;102179.47;;;18.48;68.35
74627;BME280;63132;52.268;5.192;2023-08-21T03:18:00;102174.75;;;18.42;68.62
74627;BME280;63132;52.268;5.192;2023-08-21T03:20:25;102183.09;;;18.45;68.24
74627;BME280;63132;52.268;5.192;2023-08-21T03:22:50;102181.16;;;18.42;68.37
74627;BME280;63132;52.268;5.192;2023-08-21T03:25:15;102183.50;;;18.47;68.54
74627;BME280;63132;52.268;5.192;2023-08-21T03:27:41;102171.56;;;18.40;68.34
74627;BME280;63132;52.268;5.192;2023-08-21T03:30:10;102179.63;;;18.38;68.53
74627;BME280;63132;52.268;5.192;2023-08-21T03:32:35;102183.09;;;18.45;68.41
74627;BME280;63132;52.268;5.192;2023-08-21T03:35:00;102180.97;;;18.53;68.23
74627;BME280;63132;52.268;5.192;2023-08-21T03:37:26;102182.78;;;18.67;67.89
74627;BME280;63132;52.268;5.192;2023-08-21T03:39:51;102173.66;;;18.59;67.92
74627;BME280;63132;52.268;5.192;2023-08-21T03:42:16;102172.94;;;18.55;68.36
74627;BME280;63132;52.268;5.192;2023-08-21T03:44:42;102179.28;;;18.59;68.26
74627;BME280;63132;52.268;5.192;2023-08-21T03:47:07;102164.94;;;18.53;68.18
74627;BME280;63132;52.268;5.192;2023-08-21T03:49:32;102175.00;;;18.51;68.43
74627;BME280;63132;52.268;5.192;2023-08-21T03:51:57;102173.44;;;18.50;67.88
74627;BME280;63132;52.268;5.192;2023-08-21T03:54:23;102175.47;;;18.46;68.46
74627;BME280;63132;52.268;5.192;2023-08-21T03:56:48;102176.28;;;18.46;68.27
74627;BME280;63132;52.268;5.192;2023-08-21T03:59:13;102178.56;;;18.55;68.35
74627;BME280;63132;52.268;5.192;2023-08-21T04:01:38;102174.47;;;18.60;67.98
74627;BME280;63132;52.268;5.192;2023-08-21T04:04:04;102180.53;;;18.54;68.24
74627;BME280;63132;52.268;5.192;2023-08-21T04:06:29;102177.97;;;18.67;67.75
74627;BME280;63132;52.268;5.192;2023-08-21T04:08:54;102172.13;;;18.54;68.02
74627;BME280;63132;52.268;5.192;2023-08-21T04:11:20;102179.72;;;18.58;67.63
74627;BME280;63132;52.268;5.192;2023-08-21T04:13:45;102186.38;;;18.67;67.63
74627;BME280;63132;52.268;5.192;2023-08-21T04:16:10;102186.59;;;18.53;67.52
74627;BME280;63132;52.268;5.192;2023-08-21T04:18:37;102188.59;;;18.52;67.93
74627;BME280;63132;52.268;5.192;2023-08-21T04:21:03;102186.31;;;18.47;67.77
74627;BME280;63132;52.268;5.192;2023-08-21T04:23:28;102187.81;;;18.52;67.66
74627;BME280;63132;52.268;5.192;2023-08-21T04:26:00;102192.19;;;18.53;67.34
74627;BME280;63132;52.268;5.192;2023-08-21T04:28:25;102195.13;;;18.46;67.78
74627;BME280;63132;52.268;5.192;2023-08-21T04:30:50;102185.44;;;18.50;67.65
74627;BME280;63132;52.268;5.192;2023-08-21T04:33:16;102189.91;;;18.48;67.77
74627;BME280;63132;52.268;5.192;2023-08-21T04:35:41;102185.00;;;18.52;68.11
74627;BME280;63132;52.268;5.192;2023-08-21T04:38:06;102185.78;;;18.52;67.89
74627;BME280;63132;52.268;5.192;2023-08-21T04:40:32;102193.00;;;18.53;67.79
74627;BME280;63132;52.268;5.192;2023-08-21T04:42:57;102192.28;;;18.49;68.06
74627;BME280;63132;52.268;5.192;2023-08-21T04:45:22;102192.78;;;18.68;67.76
74627;BME280;63132;52.268;5.192;2023-08-21T04:47:48;102190.22;;;18.77;66.82
74627;BME280;63132;52.268;5.192;2023-08-21T04:50:13;102196.69;;;18.74;67.25
74627;BME280;63132;52.268;5.192;2023-08-21T04:52:40;102195.59;;;18.68;67.43
74627;BME280;63132;52.268;5.192;2023-08-21T04:55:06;102203.09;;;18.74;67.13
74627;BME280;63132;52.268;5.192;2023-08-21T04:57:32;102207.13;;;18.73;67.32
74627;BME280;63132;52.268;5.192;2023-08-21T04:59:57;102207.06;;;18.77;66.69
74627;BME280;63132;52.268;5.192;2023-08-21T05:02:22;102197.59;;;18.67;67.47
74627;BME280;63132;52.268;5.192;2023-08-21T05:04:48;102198.78;;;18.70;67.40
74627;BME280;63132;52.268;5.192;2023-08-21T05:07:13;102202.25;;;18.77;67.15
74627;BME280;63132;52.268;5.192;2023-08-21T05:09:39;102193.41;;;18.79;67.22
74627;BME280;63132;52.268;5.192;2023-08-21T05:12:05;102196.38;;;18.92;66.89
74627;BME280;63132;52.268;5.192;2023-08-21T05:14:30;102209.00;;;19.03;66.58
74627;BME280;63132;52.268;5.192;2023-08-21T05:16:55;102206.50;;;19.09;66.64
74627;BME280;63132;52.268;5.192;2023-08-21T05:19:20;102209.66;;;19.11;66.71
74627;BME280;63132;52.268;5.192;2023-08-21T05:21:46;102203.81;;;19.22;66.31
74627;BME280;63132;52.268;5.192;2023-08-21T05:24:11;102201.69;;;19.29;65.87
74627;BME280;63132;52.268;5.192;2023-08-21T05:26:37;102205.72;;;19.28;66.23
74627;BME280;63132;52.268;5.192;2023-08-21T05:29:02;102208.81;;;19.34;66.31
74627;BME280;63132;52.268;5.192;2023-08-21T05:31:28;102216.47;;;19.33;66.03
74627;BME280;63132;52.268;5.192;2023-08-21T05:33:53;102207.66;;;19.51;65.65
74627;BME280;63132;52.268;5.192;2023-08-21T05:36:18;102209.56;;;19.58;66.36
74627;BME280;63132;52.268;5.192;2023-08-21T05:38:44;102200.28;;;19.61;66.24
74627;BME280;63132;52.268;5.192;2023-08-21T05:41:09;102210.16;;;19.69;66.25
74627;BME280;63132;52.268;5.192;2023-08-21T05:43:35;102208.72;;;19.61;66.37
74627;BME280;63132;52.268;5.192;2023-08-21T05:46:00;102198.97;;;19.66;66.65
74627;BME280;63132;52.268;5.192;2023-08-21T05:48:26;102214.91;;;19.72;66.73
74627;BME280;63132;52.268;5.192;2023-08-21T05:50:51;102212.94;;;19.89;66.40
74627;BME280;63132;52.268;5.192;2023-08-21T05:53:17;102202.88;;;20.08;66.84
74627;BME280;63132;52.268;5.192;2023-08-21T05:55:42;102210.38;;;20.31;66.42
74627;BME280;63132;52.268;5.192;2023-08-21T05:58:07;102206.44;;;20.28;66.04
74627;BME280;63132;52.268;5.192;2023-08-21T06:00:33;102214.13;;;20.24;67.23
74627;BME280;63132;52.268;5.192;2023-08-21T06:02:58;102212.97;;;20.58;66.48
74627;BME280;63132;52.268;5.192;2023-08-21T06:05:24;102206.63;;;20.54;65.85
74627;BME280;63132;52.268;5.192;2023-08-21T06:07:49;102210.69;;;20.53;66.23
74627;BME280;63132;52.268;5.192;2023-08-21T06:10:15;102215.63;;;20.65;66.95
74627;BME280;63132;52.268;5.192;2023-08-21T06:12:41;102216.31;;;20.69;67.48
74627;BME280;63132;52.268;5.192;2023-08-21T06:15:06;102220.88;;;20.95;67.51
74627;BME280;63132;52.268;5.192;2023-08-21T06:17:35;102219.84;;;21.18;67.42
74627;BME280;63132;52.268;5.192;2023-08-21T06:20:01;102217.19;;;21.56;66.78
74627;BME280;63132;52.268;5.192;2023-08-21T06:22:28;102219.06;;;21.89;66.58
74627;BME280;63132;52.268;5.192;2023-08-21T06:24:53;102222.25;;;22.54;65.29
74627;BME280;63132;52.268;5.192;2023-08-21T06:27:18;102232.59;;;22.96;64.92
74627;BME280;63132;52.268;5.192;2023-08-21T06:29:44;102227.94;;;23.02;64.70
74627;BME280;63132;52.268;5.192;2023-08-21T06:32:10;102230.56;;;22.96;64.82
74627;BME280;63132;52.268;5.192;2023-08-21T06:34:35;102226.84;;;23.21;64.10
74627;BME280;63132;52.268;5.192;2023-08-21T06:37:00;102234.50;;;23.33;63.76
74627;BME280;63132;52.268;5.192;2023-08-21T06:39:26;102235.00;;;23.19;63.17
74627;BME280;63132;52.268;5.192;2023-08-21T06:41:51;102230.53;;;23.31;63.53
74627;BME280;63132;52.268;5.192;2023-08-21T06:44:17;102232.25;;;23.50;63.69
74627;BME280;63132;52.268;5.192;2023-08-21T06:46:42;102229.66;;;23.78;63.47
74627;BME280;63132;52.268;5.192;2023-08-21T06:49:08;102223.72;;;23.85;62.42
74627;BME280;63132;52.268;5.192;2023-08-21T06:51:33;102226.22;;;23.83;60.10
74627;BME280;63132;52.268;5.192;2023-08-21T06:53:59;102223.91;;;24.21;59.44
74627;BME280;63132;52.268;5.192;2023-08-21T06:56:24;102227.25;;;24.29;59.24
74627;BME280;63132;52.268;5.192;2023-08-21T06:58:49;102230.28;;;23.82;60.10
74627;BME280;63132;52.268;5.192;2023-08-21T07:01:15;102232.06;;;23.88;60.23
74627;BME280;63132;52.268;5.192;2023-08-21T07:03:40;102231.75;;;23.86;60.35
74627;BME280;63132;52.268;5.192;2023-08-21T07:06:06;102233.06;;;23.72;60.84
74627;BME280;63132;52.268;5.192;2023-08-21T07:08:31;102229.78;;;23.74;60.47
74627;BME280;63132;52.268;5.192;2023-08-21T07:10:56;102233.50;;;24.24;60.21
74627;BME280;63132;52.268;5.192;2023-08-21T07:13:22;102226.84;;;24.49;59.71
74627;BME280;63132;52.268;5.192;2023-08-21T07:15:47;102230.06;;;24.78;58.34
74627;BME280;63132;52.268;5.192;2023-08-21T07:18:13;102231.88;;;25.12;56.95
74627;BME280;63132;52.268;5.192;2023-08-21T07:20:39;102233.59;;;25.19;55.77
74627;BME280;63132;52.268;5.192;2023-08-21T07:23:04;102227.59;;;25.17;54.57
74627;BME280;63132;52.268;5.192;2023-08-21T07:25:30;102228.41;;;25.27;54.41
74627;BME280;63132;52.268;5.192;2023-08-21T07:27:55;102228.06;;;25.25;53.04
74627;BME280;63132;52.268;5.192;2023-08-21T07:30:21;102237.03;;;24.96;53.81
74627;BME280;63132;52.268;5.192;2023-08-21T07:32:47;102241.56;;;24.93;53.34
74627;BME280;63132;52.268;5.192;2023-08-21T07:35:13;102243.59;;;24.74;52.99
74627;BME280;63132;52.268;5.192;2023-08-21T07:37:39;102243.94;;;24.85;52.50
74627;BME280;63132;52.268;5.192;2023-08-21T07:40:06;102247.88;;;24.88;53.02
74627;BME280;63132;52.268;5.192;2023-08-21T07:42:32;102244.53;;;24.80;53.70
74627;BME280;63132;52.268;5.192;2023-08-21T07:44:57;102242.34;;;24.75;52.84
74627;BME280;63132;52.268;5.192;2023-08-21T07:47:22;102239.03;;;24.68;52.18
74627;BME280;63132;52.268;5.192;2023-08-21T07:49:48;102246.16;;;24.81;52.55
74627;BME280;63132;52.268;5.192;2023-08-21T07:52:13;102250.88;;;25.03;50.67
74627;BME280;63132;52.268;5.192;2023-08-21T07:54:40;102244.06;;;24.73;50.93
74627;BME280;63132;52.268;5.192;2023-08-21T07:57:05;102249.59;;;24.85;51.02
74627;BME280;63132;52.268;5.192;2023-08-21T07:59:31;102241.09;;;24.95;51.01
74627;BME280;63132;52.268;5.192;2023-08-21T08:01:57;102241.16;;;25.04;50.43
74627;BME280;63132;52.268;5.192;2023-08-21T08:04:22;102240.69;;;25.05;49.98
74627;BME280;63132;52.268;5.192;2023-08-21T08:06:48;102240.84;;;25.20;49.52
74627;BME280;63132;52.268;5.192;2023-08-21T08:09:13;102248.09;;;25.21;50.40
74627;BME280;63132;52.268;5.192;2023-08-21T08:11:39;102255.97;;;25.45;50.36
74627;BME280;63132;52.268;5.192;2023-08-21T08:14:04;102248.84;;;25.40;50.46
74627;BME280;63132;52.268;5.192;2023-08-21T08:16:29;102248.41;;;25.32;49.74
74627;BME280;63132;52.268;5.192;2023-08-21T08:18:55;102250.63;;;25.28;50.94
74627;BME280;63132;52.268;5.192;2023-08-21T08:21:20;102255.34;;;25.50;49.46
74627;BME280;63132;52.268;5.192;2023-08-21T08:23:46;102245.06;;;25.52;49.62
74627;BME280;63132;52.268;5.192;2023-08-21T08:26:11;102251.22;;;25.51;49.77
74627;BME280;63132;52.268;5.192;2023-08-21T08:28:36;102241.91;;;25.59;49.55
74627;BME280;63132;52.268;5.192;2023-08-21T08:31:02;102246.81;;;25.59;49.72
74627;BME280;63132;52.268;5.192;2023-08-21T08:33:27;102248.84;;;25.40;49.56
74627;BME280;63132;52.268;5.192;2023-08-21T08:35:52;102251.56;;;25.44;50.10
74627;BME280;63132;52.268;5.192;2023-08-21T08:38:18;102249.94;;;25.61;49.87
74627;BME280;63132;52.268;5.192;2023-08-21T08:40:45;102246.97;;;25.64;49.62
74627;BME280;63132;52.268;5.192;2023-08-21T08:43:12;102253.13;;;25.63;49.93
74627;BME280;63132;52.268;5.192;2023-08-21T08:45:38;102246.47;;;25.93;49.77
74627;BME280;63132;52.268;5.192;2023-08-21T08:48:05;102250.69;;;26.07;48.23
74627;BME280;63132;52.268;5.192;2023-08-21T08:50:31;102246.22;;;26.15;47.94
74627;BME280;63132;52.268;5.192;2023-08-21T08:52:58;102249.38;;;26.17;48.26
74627;BME280;63132;52.268;5.192;2023-08-21T08:55:24;102238.66;;;26.12;48.87
74627;BME280;63132;52.268;5.192;2023-08-21T08:57:49;102242.13;;;26.16;47.73
74627;BME280;63132;52.268;5.192;2023-08-21T09:00:15;102235.72;;;26.40;48.10
74627;BME280;63132;52.268;5.192;2023-08-21T09:02:41;102237.94;;;26.69;46.88
74627;BME280;63132;52.268;5.192;2023-08-21T09:05:06;102233.16;;;26.75;46.49
74627;BME280;63132;52.268;5.192;2023-08-21T09:07:33;102241.84;;;26.47;46.33
74627;BME280;63132;52.268;5.192;2023-08-21T09:10:00;102235.19;;;26.50;45.88
74627;BME280;63132;52.268;5.192;2023-08-21T09:12:25;102236.03;;;26.42;46.53
74627;BME280;63132;52.268;5.192;2023-08-21T09:14:51;102242.06;;;26.68;45.77
74627;BME280;63132;52.268;5.192;2023-08-21T09:17:16;102242.66;;;26.72;45.99
74627;BME280;63132;52.268;5.192;2023-08-21T09:19:42;102236.66;;;26.37;46.28
74627;BME280;63132;52.268;5.192;2023-08-21T09:22:13;102240.91;;;26.98;44.16
74627;BME280;63132;52.268;5.192;2023-08-21T09:24:40;102244.09;;;26.91;44.83
74627;BME280;63132;52.268;5.192;2023-08-21T09:27:35;102237.03;;;26.87;44.50
74627;BME280;63132;52.268;5.192;2023-08-21T09:30:03;102250.72;;;26.40;45.34
74627;BME280;63132;52.268;5.192;2023-08-21T09:32:29;102243.84;;;26.80;44.47
74627;BME280;63132;52.268;5.192;2023-08-21T09:34:54;102243.13;;;26.94;45.04
74627;BME280;63132;52.268;5.192;2023-08-21T09:37:19;102237.34;;;27.13;44.99
74627;BME280;63132;52.268;5.192;2023-08-21T09:39:45;102236.72;;;26.61;44.89
74627;BME280;63132;52.268;5.192;2023-08-21T09:42:11;102235.75;;;26.64;43.76
74627;BME280;63132;52.268;5.192;2023-08-21T09:44:38;102236.78;;;26.99;43.54
74627;BME280;63132;52.268;5.192;2023-08-21T09:47:07;102231.94;;;26.91;45.20
74627;BME280;63132;52.268;5.192;2023-08-21T09:49:34;102219.88;;;27.05;45.14
74627;BME280;63132;52.268;5.192;2023-08-21T09:52:00;102224.31;;;27.21;42.81
74627;BME280;63132;52.268;5.192;2023-08-21T09:54:26;102229.03;;;27.24;43.53
74627;BME280;63132;52.268;5.192;2023-08-21T09:56:51;102226.38;;;27.20;44.20
74627;BME280;63132;52.268;5.192;2023-08-21T09:59:17;102224.00;;;26.95;45.18
74627;BME280;63132;52.268;5.192;2023-08-21T10:01:44;102216.44;;;27.16;44.63
74627;BME280;63132;52.268;5.192;2023-08-21T10:04:12;102212.81;;;27.15;44.67
74627;BME280;63132;52.268;5.192;2023-08-21T10:06:38;102211.00;;;27.27;44.67
74627;BME280;63132;52.268;5.192;2023-08-21T10:09:04;102212.28;;;27.55;45.29
74627;BME280;63132;52.268;5.192;2023-08-21T10:11:30;102210.13;;;27.50;44.48
74627;BME280;63132;52.268;5.192;2023-08-21T10:13:56;102210.72;;;27.54;46.14
74627;BME280;63132;52.268;5.192;2023-08-21T10:16:21;102219.97;;;27.64;45.70
74627;BME280;63132;52.268;5.192;2023-08-21T10:18:47;102210.94;;;27.80;44.57
74627;BME280;63132;52.268;5.192;2023-08-21T10:21:20;102211.25;;;27.68;45.67
74627;BME280;63132;52.268;5.192;2023-08-21T10:23:49;102212.31;;;27.70;45.94
74627;BME280;63132;52.268;5.192;2023-08-21T10:26:18;102217.56;;;28.07;45.19
74627;BME280;63132;52.268;5.192;2023-08-21T10:28:52;102212.16;;;28.24;44.53
74627;BME280;63132;52.268;5.192;2023-08-21T10:31:38;102220.41;;;27.33;45.13
74627;BME280;63132;52.268;5.192;2023-08-21T10:34:05;102216.94;;;27.68;44.96
74627;BME280;63132;52.268;5.192;2023-08-21T10:39:26;102222.06;;;27.40;45.15
74627;BME280;63132;52.268;5.192;2023-08-21T10:42:09;102213.75;;;27.36;43.94
74627;BME280;63132;52.268;5.192;2023-08-21T10:49:52;102212.91;;;27.89;43.84
74627;BME280;63132;52.268;5.192;2023-08-21T10:52:22;102210.53;;;27.43;43.85
74627;BME280;63132;52.268;5.192;2023-08-21T10:54:52;102210.88;;;27.21;44.28
74627;BME280;63132;52.268;5.192;2023-08-21T10:57:18;102210.94;;;27.66;43.53
74627;BME280;63132;52.268;5.192;2023-08-21T11:00:05;102210.25;;;27.85;43.03
74627;BME280;63132;52.268;5.192;2023-08-21T11:02:33;102207.78;;;27.78;42.83
74627;BME280;63132;52.268;5.192;2023-08-21T11:05:00;102220.00;;;27.79;42.20
74627;BME280;63132;52.268;5.192;2023-08-21T11:07:27;102217.28;;;28.20;41.76
74627;BME280;63132;52.268;5.192;2023-08-21T11:09:52;102209.22;;;28.18;41.34
74627;BME280;63132;52.268;5.192;2023-08-21T11:12:20;102213.81;;;28.15;41.52
74627;BME280;63132;52.268;5.192;2023-08-21T11:14:45;102203.69;;;28.29;41.27
74627;BME280;63132;52.268;5.192;2023-08-21T11:17:12;102210.16;;;27.95;40.25
74627;BME280;63132;52.268;5.192;2023-08-21T11:19:38;102197.09;;;28.23;39.65
74627;BME280;63132;52.268;5.192;2023-08-21T11:22:04;102207.91;;;28.69;38.59
74627;BME280;63132;52.268;5.192;2023-08-21T11:24:45;102199.53;;;29.27;38.46
74627;BME280;63132;52.268;5.192;2023-08-21T11:27:12;102206.94;;;28.92;37.16
74627;BME280;63132;52.268;5.192;2023-08-21T11:29:43;102210.88;;;28.39;38.17
74627;BME280;63132;52.268;5.192;2023-08-21T11:32:10;102209.56;;;28.76;37.20
74627;BME280;63132;52.268;5.192;2023-08-21T11:34:37;102200.91;;;29.11;38.63
74627;BME280;63132;52.268;5.192;2023-08-21T11:37:03;102206.97;;;29.18;38.36
74627;BME280;63132;52.268;5.192;2023-08-21T11:39:42;102200.59;;;29.29;38.11
74627;BME280;63132;52.268;5.192;2023-08-21T11:42:09;102196.47;;;29.56;37.48
74627;BME280;63132;52.268;5.192;2023-08-21T11:44:45;102211.22;;;29.29;38.04
74627;BME280;63132;52.268;5.192;2023-08-21T11:47:12;102196.66;;;29.27;38.08
74627;BME280;63132;52.268;5.192;2023-08-21T11:49:41;102192.94;;;29.67;37.64
74627;BME280;63132;52.268;5.192;2023-08-21T11:52:08;102183.25;;;30.22;36.70
74627;BME280;63132;52.268;5.192;2023-08-21T11:54:38;102181.88;;;30.54;36.55
74627;BME280;63132;52.268;5.192;2023-08-21T11:57:08;102181.66;;;30.15;36.33
74627;BME280;63132;52.268;5.192;2023-08-21T11:59:34;102192.59;;;30.22;36.88
74627;BME280;63132;52.268;5.192;2023-08-21T12:02:00;102188.25;;;30.01;37.49
74627;BME280;63132;52.268;5.192;2023-08-21T12:04:26;102193.94;;;29.64;38.12
74627;BME280;63132;52.268;5.192;2023-08-21T12:06:52;102197.53;;;29.59;38.46
74627;BME280;63132;52.268;5.192;2023-08-21T12:09:17;102194.75;;;29.96;36.47
74627;BME280;63132;52.268;5.192;2023-08-21T12:11:44;102187.34;;;30.10;37.92
74627;BME280;63132;52.268;5.192;2023-08-21T12:14:10;102197.09;;;29.66;38.71
74627;BME280;63132;52.268;5.192;2023-08-21T12:16:37;102190.84;;;30.30;36.88
74627;BME280;63132;52.268;5.192;2023-08-21T12:19:02;102174.31;;;30.09;36.16
74627;BME280;63132;52.268;5.192;2023-08-21T12:21:28;102180.56;;;29.75;37.03
74627;BME280;63132;52.268;5.192;2023-08-21T12:23:54;102182.00;;;29.39;37.52
74627;BME280;63132;52.268;5.192;2023-08-21T12:26:19;102181.50;;;29.98;37.21
74627;BME280;63132;52.268;5.192;2023-08-21T12:28:48;102176.69;;;30.10;37.44
74627;BME280;63132;52.268;5.192;2023-08-21T12:31:15;102181.22;;;29.65;37.55
74627;BME280;63132;52.268;5.192;2023-08-21T12:33:40;102176.50;;;29.88;37.23
74627;BME280;63132;52.268;5.192;2023-08-21T12:36:06;102175.47;;;29.91;37.38
74627;BME280;63132;52.268;5.192;2023-08-21T12:38:31;102175.75;;;29.93;36.94
74627;BME280;63132;52.268;5.192;2023-08-21T12:40:57;102176.50;;;29.88;36.41
74627;BME280;63132;52.268;5.192;2023-08-21T12:43:23;102177.75;;;29.81;37.10
74627;BME280;63132;52.268;5.192;2023-08-21T12:45:48;102177.44;;;29.73;36.78
74627;BME280;63132;52.268;5.192;2023-08-21T12:48:14;102181.28;;;29.18;37.49
74627;BME280;63132;52.268;5.192;2023-08-21T12:50:39;102180.00;;;29.45;36.31
74627;BME280;63132;52.268;5.192;2023-08-21T12:53:05;102181.94;;;29.08;38.01
74627;BME280;63132;52.268;5.192;2023-08-21T12:55:30;102171.38;;;29.40;37.67
74627;BME280;63132;52.268;5.192;2023-08-21T12:57:56;102172.22;;;29.46;37.42